createdAt,value
2023-03-22T00:02:13.921Z,97.78
2023-03-22T00:04:42.630Z,97.35
2023-03-22T00:07:09.590Z,97.88
2023-03-22T00:09:36.706Z,97.90
2023-03-22T00:12:03.795Z,97.97
2023-03-22T00:14:30.494Z,97.97
2023-03-22T00:16:57.465Z,97.89
2023-03-22T00:19:24.178Z,98.53
2023-03-22T00:21:52.275Z,98.00
2023-03-22T00:24:21.148Z,98.10
2023-03-22T00:26:47.819Z,97.52
2023-03-22T00:29:14.611Z,97.22
2023-03-22T00:31:41.447Z,98.06
2023-03-22T00:34:08.429Z,98.09
2023-03-22T00:36:37.895Z,99.13
2023-03-22T00:39:04.726Z,99.11
2023-03-22T00:41:31.532Z,98.87
2023-03-22T00:43:58.265Z,98.97
2023-03-22T00:46:25.019Z,98.86
2023-03-22T00:48:51.793Z,98.22
2023-03-22T00:51:18.520Z,98.19
2023-03-22T00:53:45.746Z,98.14
2023-03-22T00:56:16.068Z,98.16
2023-03-22T00:58:43.428Z,99.63
2023-03-22T01:01:13.849Z,98.93
2023-03-22T01:03:42.053Z,99.08
2023-03-22T01:06:09.336Z,99.02
2023-03-22T01:08:39.293Z,99.31
2023-03-22T01:11:07.463Z,99.17
2023-03-22T01:13:37.610Z,99.26
2023-03-22T01:16:05.835Z,99.30
2023-03-22T01:18:32.569Z,99.21
2023-03-22T01:21:00.482Z,98.87
2023-03-22T01:23:27.291Z,99.99
2023-03-22T01:25:54.053Z,99.35
2023-03-22T01:28:20.700Z,100.00
2023-03-22T01:30:47.522Z,99.24
2023-03-22T01:33:14.260Z,100.00
2023-03-22T01:35:40.998Z,99.85
2023-03-22T01:38:07.753Z,100.00
2023-03-22T01:40:34.954Z,100.00
2023-03-22T01:43:01.683Z,100.00
2023-03-22T01:45:42.957Z,100.00
2023-03-22T01:48:36.122Z,100.00
2023-03-22T01:51:27.729Z,100.00
2023-03-22T01:54:04.135Z,100.00
2023-03-22T01:56:34.737Z,100.00
2023-03-22T01:59:02.143Z,100.00
2023-03-22T02:01:30.189Z,100.00
2023-03-22T02:04:25.891Z,100.00
2023-03-22T02:06:56.600Z,100.00
2023-03-22T02:09:23.337Z,100.00
2023-03-22T02:12:07.049Z,100.00
2023-03-22T02:15:12.020Z,100.00
2023-03-22T02:17:59.711Z,100.00
2023-03-22T02:20:29.302Z,100.00
2023-03-22T02:23:26.385Z,100.00
2023-03-22T02:26:19.613Z,100.00
2023-03-22T02:28:56.811Z,100.00
2023-03-22T02:31:41.753Z,100.00
2023-03-22T02:34:36.406Z,100.00
2023-03-22T02:37:14.881Z,100.00
2023-03-22T02:39:47.248Z,100.00
2023-03-22T02:42:46.260Z,100.00
2023-03-22T02:45:23.139Z,100.00
2023-03-22T02:48:10.206Z,100.00
2023-03-22T02:50:52.458Z,99.94
2023-03-22T02:53:31.291Z,99.76
2023-03-22T02:56:11.623Z,99.84
2023-03-22T02:58:48.433Z,99.98
2023-03-22T03:01:21.325Z,100.00
2023-03-22T03:03:51.046Z,100.00
2023-03-22T03:06:20.885Z,100.00
2023-03-22T03:08:51.067Z,100.00
2023-03-22T03:11:18.229Z,100.00
2023-03-22T03:13:48.464Z,100.00
2023-03-22T03:16:18.976Z,100.00
2023-03-22T03:18:48.624Z,100.00
2023-03-22T03:21:34.876Z,100.00
2023-03-22T03:24:32.969Z,100.00
2023-03-22T03:27:07.294Z,100.00
2023-03-22T03:29:41.231Z,100.00
2023-03-22T03:32:21.121Z,100.00
2023-03-22T03:34:52.942Z,100.00
2023-03-22T03:37:24.111Z,100.00
2023-03-22T03:40:13.093Z,100.00
2023-03-22T03:42:44.792Z,100.00
2023-03-22T03:45:12.518Z,100.00
2023-03-22T03:47:39.663Z,100.00
2023-03-22T03:50:08.462Z,100.00
2023-03-22T03:52:35.767Z,100.00
2023-03-22T03:55:02.598Z,100.00
2023-03-22T03:57:29.378Z,100.00
2023-03-22T03:59:56.362Z,100.00
2023-03-22T04:02:23.108Z,100.00
2023-03-22T04:04:50.011Z,100.00
2023-03-22T04:07:16.842Z,100.00
2023-03-22T04:09:43.520Z,100.00
2023-03-22T04:12:10.513Z,100.00
2023-03-22T04:14:37.599Z,100.00
2023-03-22T04:17:04.362Z,100.00
2023-03-22T04:19:31.349Z,100.00
2023-03-22T04:21:58.344Z,100.00
2023-03-22T04:24:25.021Z,100.00
2023-03-22T04:26:52.719Z,100.00
2023-03-22T04:29:19.620Z,100.00
2023-03-22T04:31:46.299Z,100.00
2023-03-22T04:34:13.004Z,100.00
2023-03-22T04:36:39.749Z,100.00
2023-03-22T04:39:10.543Z,100.00
2023-03-22T04:41:37.798Z,100.00
2023-03-22T04:44:06.054Z,100.00
2023-03-22T04:46:35.513Z,100.00
2023-03-22T04:49:02.323Z,100.00
2023-03-22T04:51:30.475Z,100.00
2023-03-22T04:53:57.201Z,100.00
2023-03-22T04:56:25.399Z,100.00
2023-03-22T04:58:52.057Z,100.00
2023-03-22T05:01:19.248Z,100.00
2023-03-22T05:03:47.638Z,100.00
2023-03-22T05:06:15.592Z,100.00
2023-03-22T05:08:42.798Z,100.00
2023-03-22T05:11:13.751Z,100.00
2023-03-22T05:13:40.936Z,100.00
2023-03-22T05:16:08.215Z,100.00
2023-03-22T05:18:38.104Z,100.00
2023-03-22T05:21:06.813Z,100.00
2023-03-22T05:23:33.663Z,100.00
2023-03-22T05:26:02.067Z,100.00
2023-03-22T05:28:28.850Z,100.00
2023-03-22T05:30:57.225Z,100.00
2023-03-22T05:33:24.123Z,100.00
2023-03-22T05:35:51.358Z,100.00
2023-03-22T05:38:18.289Z,100.00
2023-03-22T05:40:46.484Z,100.00
2023-03-22T05:43:13.424Z,100.00
2023-03-22T05:45:40.287Z,100.00
2023-03-22T05:48:07.690Z,100.00
2023-03-22T05:50:35.397Z,100.00
2023-03-22T05:53:03.667Z,100.00
2023-03-22T05:55:32.327Z,100.00
2023-03-22T05:58:01.654Z,100.00
2023-03-22T06:00:32.015Z,100.00
2023-03-22T06:03:03.653Z,100.00
2023-03-22T06:05:32.182Z,100.00
2023-03-22T06:07:59.670Z,100.00
2023-03-22T06:10:27.038Z,100.00
2023-03-22T06:12:54.161Z,100.00
2023-03-22T06:15:21.553Z,100.00
2023-03-22T06:17:48.589Z,100.00
2023-03-22T06:20:15.660Z,100.00
2023-03-22T06:22:42.891Z,100.00
2023-03-22T06:25:10.759Z,100.00
2023-03-22T06:27:37.493Z,100.00
2023-03-22T06:30:04.609Z,100.00
2023-03-22T06:32:31.380Z,100.00
2023-03-22T06:34:58.197Z,100.00
2023-03-22T06:37:25.362Z,100.00
2023-03-22T06:39:52.380Z,100.00
2023-03-22T06:42:19.095Z,100.00
2023-03-22T06:44:45.902Z,100.00
2023-03-22T06:47:12.846Z,100.00
2023-03-22T06:49:39.779Z,100.00
2023-03-22T06:52:06.757Z,100.00
2023-03-22T06:54:33.701Z,99.69
2023-03-22T06:57:00.723Z,98.82
2023-03-22T06:59:27.872Z,98.85
2023-03-22T07:01:54.774Z,98.36
2023-03-22T07:04:21.523Z,98.59
2023-03-22T07:06:48.474Z,98.13
2023-03-22T07:09:15.576Z,97.23
2023-03-22T07:11:42.495Z,96.67
2023-03-22T07:14:09.363Z,96.21
2023-03-22T07:16:36.002Z,95.82
2023-03-22T07:19:03.635Z,94.63
2023-03-22T07:24:09.195Z,94.14
2023-03-22T07:26:38.579Z,93.79
2023-03-22T07:29:05.519Z,93.32
2023-03-22T07:31:36.391Z,91.60
2023-03-22T07:34:04.286Z,90.94
2023-03-22T07:36:31.167Z,90.87
2023-03-22T07:38:58.231Z,89.58
2023-03-22T07:41:27.052Z,88.06
2023-03-22T07:44:00.242Z,87.48
2023-03-22T07:46:34.587Z,87.47
2023-03-22T07:49:01.513Z,88.69
2023-03-22T07:51:28.224Z,86.59
2023-03-22T07:53:54.881Z,86.50
2023-03-22T07:56:21.603Z,85.88
2023-03-22T07:58:48.348Z,85.19
2023-03-22T08:01:15.088Z,85.35
2023-03-22T08:03:41.787Z,85.33
2023-03-22T08:06:09.090Z,83.39
2023-03-22T08:08:37.553Z,83.62
2023-03-22T08:11:05.627Z,85.14
2023-03-22T08:13:33.161Z,84.45
2023-03-22T08:16:00.014Z,84.50
2023-03-22T08:18:26.670Z,82.82
2023-03-22T08:20:58.121Z,84.10
2023-03-22T08:23:35.042Z,84.28
2023-03-22T08:26:07.606Z,83.89
2023-03-22T08:28:34.360Z,83.95
2023-03-22T08:31:01.042Z,83.82
2023-03-22T08:33:28.711Z,83.59
2023-03-22T08:36:06.636Z,83.15
2023-03-22T08:38:33.360Z,83.58
2023-03-22T08:41:00.021Z,84.07
2023-03-22T08:43:26.728Z,82.01
2023-03-22T08:45:53.674Z,81.82
2023-03-22T08:48:21.261Z,82.81
2023-03-22T08:50:48.091Z,83.47
2023-03-22T08:53:14.978Z,81.29
2023-03-22T08:55:44.924Z,81.56
2023-03-22T08:58:13.142Z,81.74
2023-03-22T09:00:48.719Z,81.36
2023-03-22T09:03:16.761Z,81.59
2023-03-22T09:05:43.974Z,80.52
2023-03-22T09:08:18.555Z,80.74
2023-03-22T09:10:51.326Z,80.27
2023-03-22T09:13:19.046Z,80.81
2023-03-22T09:15:46.134Z,79.62
2023-03-22T09:18:13.510Z,78.54
2023-03-22T09:20:40.623Z,77.98
2023-03-22T09:23:07.792Z,77.90
2023-03-22T09:25:34.607Z,73.23
2023-03-22T09:28:02.288Z,72.73
2023-03-22T09:30:29.122Z,74.26
2023-03-22T09:32:55.897Z,72.51
2023-03-22T09:35:23.021Z,73.04
2023-03-22T09:37:53.313Z,71.82
2023-03-22T09:40:21.515Z,72.69
2023-03-22T09:42:55.050Z,72.07
2023-03-22T09:45:38.140Z,72.36
2023-03-22T09:48:27.206Z,71.47
2023-03-22T09:50:55.305Z,72.23
2023-03-22T09:53:24.783Z,71.40
2023-03-22T09:55:51.328Z,72.26
2023-03-22T09:58:36.239Z,70.42
2023-03-22T10:01:29.267Z,70.64
2023-03-22T10:04:38.886Z,68.73
2023-03-22T10:07:39.078Z,69.78
2023-03-22T10:10:12.098Z,70.30
2023-03-22T10:13:20.003Z,69.68
2023-03-22T10:16:03.028Z,67.03
2023-03-22T10:18:39.057Z,67.58
2023-03-22T10:21:07.397Z,65.86
2023-03-22T10:23:51.072Z,64.81
2023-03-22T10:26:25.423Z,61.65
2023-03-22T10:29:04.010Z,64.36
2023-03-22T10:31:32.391Z,64.08
2023-03-22T10:34:05.504Z,64.41
2023-03-22T10:36:35.732Z,63.49
2023-03-22T10:39:09.120Z,62.20
2023-03-22T10:41:36.963Z,62.63
2023-03-22T10:44:06.538Z,63.84
2023-03-22T10:46:39.459Z,63.56
2023-03-22T10:49:08.369Z,63.77
2023-03-22T10:51:56.824Z,63.50
2023-03-22T10:54:26.268Z,64.02
2023-03-22T10:56:53.496Z,62.71
2023-03-22T10:59:44.084Z,63.44
2023-03-22T11:02:25.071Z,63.56
2023-03-22T11:04:54.328Z,63.65
2023-03-22T11:07:44.903Z,62.92
2023-03-22T11:10:14.528Z,63.34
2023-03-22T11:12:47.427Z,61.81
2023-03-22T11:15:28.074Z,64.71
2023-03-22T11:18:01.003Z,63.69
2023-03-22T11:20:29.972Z,63.13
2023-03-22T11:23:02.877Z,63.41
2023-03-22T11:25:32.735Z,62.31
2023-03-22T11:28:05.669Z,62.34
2023-03-22T11:30:36.112Z,61.68
2023-03-22T11:33:08.964Z,57.89
2023-03-22T11:35:37.675Z,61.38
2023-03-22T11:38:05.824Z,55.98
2023-03-22T11:40:36.256Z,60.50
2023-03-22T11:43:27.448Z,56.76
2023-03-22T11:45:57.961Z,57.50
2023-03-22T11:48:27.669Z,56.67
2023-03-22T11:50:59.620Z,54.94
2023-03-22T11:53:28.256Z,56.68
2023-03-22T11:55:57.747Z,56.20
2023-03-22T11:58:43.303Z,57.33
2023-03-22T12:01:36.791Z,56.69
2023-03-22T12:04:09.350Z,56.76
2023-03-22T12:06:40.579Z,55.83
2023-03-22T12:09:22.385Z,55.08
2023-03-22T12:11:53.216Z,54.07
2023-03-22T12:14:26.043Z,53.66
2023-03-22T12:17:03.013Z,53.21
2023-03-22T12:20:07.357Z,54.54
2023-03-22T12:22:43.214Z,54.25
2023-03-22T12:25:15.869Z,53.13
2023-03-22T12:27:56.768Z,53.78
2023-03-22T12:30:29.888Z,53.92
2023-03-22T12:33:25.539Z,53.32
2023-03-22T12:35:57.242Z,53.69
2023-03-22T12:38:28.831Z,54.08
2023-03-22T12:41:03.078Z,53.67
2023-03-22T12:43:53.322Z,53.49
2023-03-22T12:46:25.770Z,53.57
2023-03-22T12:49:01.161Z,52.34
2023-03-22T12:51:27.983Z,51.65
2023-03-22T12:54:00.046Z,51.69
2023-03-22T12:56:36.406Z,51.81
2023-03-22T12:59:06.575Z,52.07
2023-03-22T13:01:51.215Z,48.97
2023-03-22T13:04:27.558Z,49.18
2023-03-22T13:06:56.068Z,50.10
2023-03-22T13:09:28.779Z,50.22
2023-03-22T13:12:17.311Z,50.26
2023-03-22T13:14:50.452Z,49.42
2023-03-22T13:17:23.230Z,50.06
2023-03-22T13:19:53.821Z,50.56
2023-03-22T13:22:49.602Z,47.83
2023-03-22T13:25:23.781Z,47.56
2023-03-22T13:28:03.463Z,48.30
2023-03-22T13:30:52.543Z,48.40
2023-03-22T13:33:32.686Z,48.75
2023-03-22T13:36:07.138Z,49.69
2023-03-22T13:38:40.076Z,50.80
2023-03-22T13:41:29.478Z,50.74
2023-03-22T13:43:59.378Z,50.21
2023-03-22T13:46:26.056Z,51.08
2023-03-22T13:49:02.085Z,51.54
2023-03-22T13:51:32.293Z,52.14
2023-03-22T13:54:14.853Z,52.49
2023-03-22T13:56:53.268Z,52.50
2023-03-22T13:59:33.984Z,51.88
2023-03-22T14:02:11.007Z,51.78
2023-03-22T14:04:57.358Z,52.81
2023-03-22T14:07:29.298Z,52.23
2023-03-22T14:10:00.647Z,53.57
2023-03-22T14:12:54.271Z,54.81
2023-03-22T14:15:30.197Z,52.67
2023-03-22T14:18:00.762Z,53.46
2023-03-22T14:20:33.780Z,53.95
